sensor_id;sensor_type;location;lat;lon;timestamp;P1;durP1;ratioP1;P2;durP2;ratioP2
13973;SDS011;7060;43.770;4.008;2024-03-02T00:01:51;2.43;;;1.07;;
13973;SDS011;7060;43.770;4.008;2024-03-02T00:04:19;5.83;;;2.03;;
13973;SDS011;7060;43.770;4.008;2024-03-02T00:06:47;5.63;;;1.40;;
13973;SDS011;7060;43.770;4.008;2024-03-02T00:09:18;4.93;;;1.70;;
13973;SDS011;7060;43.770;4.008;2024-03-02T00:11:46;5.17;;;1.80;;
13973;SDS011;7060;43.770;4.008;2024-03-02T00:14:14;6.70;;;2.47;;
13973;SDS011;7060;43.770;4.008;2024-03-02T00:16:44;5.43;;;2.33;;
13973;SDS011;7060;43.770;4.008;2024-03-02T00:19:12;7.17;;;2.10;;
13973;SDS011;7060;43.770;4.008;2024-03-02T00:21:40;4.33;;;1.70;;
13973;SDS011;7060;43.770;4.008;2024-03-02T00:24:12;5.10;;;2.33;;
13973;SDS011;7060;43.770;4.008;2024-03-02T00:26:48;5.60;;;2.63;;
13973;SDS011;7060;43.770;4.008;2024-03-02T00:29:16;4.53;;;2.20;;
13973;SDS011;7060;43.770;4.008;2024-03-02T00:31:47;7.53;;;2.00;;
13973;SDS011;7060;43.770;4.008;2024-03-02T00:34:15;5.90;;;1.90;;
13973;SDS011;7060;43.770;4.008;2024-03-02T00:36:45;5.67;;;2.40;;
13973;SDS011;7060;43.770;4.008;2024-03-02T00:39:15;5.67;;;2.60;;
13973;SDS011;7060;43.770;4.008;2024-03-02T00:41:44;4.30;;;2.40;;
13973;SDS011;7060;43.770;4.008;2024-03-02T00:44:12;6.10;;;1.33;;
13973;SDS011;7060;43.770;4.008;2024-03-02T00:46:43;3.60;;;1.10;;
13973;SDS011;7060;43.770;4.008;2024-03-02T00:49:16;3.63;;;1.00;;
13973;SDS011;7060;43.770;4.008;2024-03-02T00:51:47;3.93;;;0.80;;
13973;SDS011;7060;43.770;4.008;2024-03-02T00:54:19;5.87;;;1.23;;
13973;SDS011;7060;43.770;4.008;2024-03-02T00:56:48;5.13;;;1.73;;
13973;SDS011;7060;43.770;4.008;2024-03-02T00:59:16;5.47;;;1.80;;
13973;SDS011;7060;43.770;4.008;2024-03-02T01:01:44;7.03;;;2.37;;
13973;SDS011;7060;43.770;4.008;2024-03-02T01:04:13;8.13;;;2.30;;
13973;SDS011;7060;43.770;4.008;2024-03-02T01:06:42;4.83;;;1.60;;
13973;SDS011;7060;43.770;4.008;2024-03-02T01:09:10;3.50;;;1.60;;
13973;SDS011;7060;43.770;4.008;2024-03-02T01:11:39;4.83;;;1.53;;
13973;SDS011;7060;43.770;4.008;2024-03-02T01:14:07;5.80;;;1.60;;
13973;SDS011;7060;43.770;4.008;2024-03-02T01:16:35;3.37;;;1.57;;
13973;SDS011;7060;43.770;4.008;2024-03-02T01:19:03;5.73;;;1.97;;
13973;SDS011;7060;43.770;4.008;2024-03-02T01:21:33;3.50;;;1.93;;
13973;SDS011;7060;43.770;4.008;2024-03-02T01:24:01;3.57;;;1.90;;
13973;SDS011;7060;43.770;4.008;2024-03-02T01:26:29;5.73;;;2.37;;
13973;SDS011;7060;43.770;4.008;2024-03-02T01:28:58;5.60;;;2.10;;
13973;SDS011;7060;43.770;4.008;2024-03-02T01:31:25;4.87;;;1.50;;
13973;SDS011;7060;43.770;4.008;2024-03-02T01:33:53;4.63;;;2.00;;
13973;SDS011;7060;43.770;4.008;2024-03-02T01:36:21;6.77;;;2.00;;
13973;SDS011;7060;43.770;4.008;2024-03-02T01:38:51;3.30;;;1.60;;
13973;SDS011;7060;43.770;4.008;2024-03-02T01:41:19;3.63;;;2.03;;
13973;SDS011;7060;43.770;4.008;2024-03-02T01:43:47;4.93;;;2.90;;
13973;SDS011;7060;43.770;4.008;2024-03-02T01:46:15;4.90;;;2.20;;
13973;SDS011;7060;43.770;4.008;2024-03-02T01:48:43;6.10;;;2.37;;
13973;SDS011;7060;43.770;4.008;2024-03-02T01:51:11;6.97;;;2.73;;
13973;SDS011;7060;43.770;4.008;2024-03-02T01:53:40;5.07;;;2.90;;
13973;SDS011;7060;43.770;4.008;2024-03-02T01:56:10;6.63;;;2.40;;
13973;SDS011;7060;43.770;4.008;2024-03-02T01:58:38;8.03;;;2.53;;
13973;SDS011;7060;43.770;4.008;2024-03-02T02:01:06;8.37;;;3.43;;
13973;SDS011;7060;43.770;4.008;2024-03-02T02:03:34;7.17;;;2.17;;
13973;SDS011;7060;43.770;4.008;2024-03-02T02:06:03;5.97;;;2.33;;
13973;SDS011;7060;43.770;4.008;2024-03-02T02:08:31;10.43;;;3.57;;
13973;SDS011;7060;43.770;4.008;2024-03-02T02:10:59;7.63;;;3.57;;
13973;SDS011;7060;43.770;4.008;2024-03-02T02:13:29;6.73;;;3.10;;
13973;SDS011;7060;43.770;4.008;2024-03-02T02:16:03;7.43;;;3.40;;
13973;SDS011;7060;43.770;4.008;2024-03-02T02:18:32;9.57;;;3.27;;
13973;SDS011;7060;43.770;4.008;2024-03-02T02:21:00;8.73;;;3.60;;
13973;SDS011;7060;43.770;4.008;2024-03-02T02:23:29;6.27;;;2.97;;
13973;SDS011;7060;43.770;4.008;2024-03-02T02:25:58;7.37;;;2.73;;
13973;SDS011;7060;43.770;4.008;2024-03-02T02:28:25;5.60;;;2.10;;
13973;SDS011;7060;43.770;4.008;2024-03-02T02:30:54;7.33;;;3.03;;
13973;SDS011;7060;43.770;4.008;2024-03-02T02:33:23;6.23;;;2.80;;
13973;SDS011;7060;43.770;4.008;2024-03-02T02:35:51;5.60;;;2.90;;
13973;SDS011;7060;43.770;4.008;2024-03-02T02:38:19;10.13;;;2.83;;
13973;SDS011;7060;43.770;4.008;2024-03-02T02:40:49;5.83;;;2.77;;
13973;SDS011;7060;43.770;4.008;2024-03-02T02:43:17;6.33;;;1.90;;
13973;SDS011;7060;43.770;4.008;2024-03-02T02:45:45;7.00;;;2.47;;
13973;SDS011;7060;43.770;4.008;2024-03-02T02:48:13;5.43;;;2.27;;
13973;SDS011;7060;43.770;4.008;2024-03-02T02:50:41;5.03;;;2.30;;
13973;SDS011;7060;43.770;4.008;2024-03-02T02:53:09;4.83;;;2.50;;
13973;SDS011;7060;43.770;4.008;2024-03-02T02:55:39;4.03;;;2.13;;
13973;SDS011;7060;43.770;4.008;2024-03-02T02:58:08;5.23;;;2.37;;
13973;SDS011;7060;43.770;4.008;2024-03-02T03:00:36;5.10;;;2.13;;
13973;SDS011;7060;43.770;4.008;2024-03-02T03:03:04;6.73;;;2.27;;
13973;SDS011;7060;43.770;4.008;2024-03-02T03:05:32;8.87;;;2.57;;
13973;SDS011;7060;43.770;4.008;2024-03-02T03:08:00;4.40;;;2.77;;
13973;SDS011;7060;43.770;4.008;2024-03-02T03:10:29;5.73;;;2.63;;
13973;SDS011;7060;43.770;4.008;2024-03-02T03:12:57;7.17;;;2.87;;
13973;SDS011;7060;43.770;4.008;2024-03-02T03:15:26;5.07;;;2.60;;
13973;SDS011;7060;43.770;4.008;2024-03-02T03:17:54;5.10;;;1.87;;
13973;SDS011;7060;43.770;4.008;2024-03-02T03:20:22;6.00;;;2.33;;
13973;SDS011;7060;43.770;4.008;2024-03-02T03:22:51;5.37;;;2.73;;
13973;SDS011;7060;43.770;4.008;2024-03-02T03:25:19;4.77;;;2.47;;
13973;SDS011;7060;43.770;4.008;2024-03-02T03:27:47;7.97;;;3.30;;
13973;SDS011;7060;43.770;4.008;2024-03-02T03:30:15;5.17;;;2.33;;
13973;SDS011;7060;43.770;4.008;2024-03-02T03:32:44;6.33;;;2.10;;
13973;SDS011;7060;43.770;4.008;2024-03-02T03:35:14;5.00;;;2.00;;
13973;SDS011;7060;43.770;4.008;2024-03-02T03:37:42;4.63;;;2.07;;
13973;SDS011;7060;43.770;4.008;2024-03-02T03:40:11;4.83;;;2.23;;
13973;SDS011;7060;43.770;4.008;2024-03-02T03:42:40;2.93;;;1.90;;
13973;SDS011;7060;43.770;4.008;2024-03-02T03:45:08;5.33;;;2.10;;
13973;SDS011;7060;43.770;4.008;2024-03-02T03:47:37;8.40;;;2.57;;
13973;SDS011;7060;43.770;4.008;2024-03-02T03:50:07;9.83;;;3.40;;
13973;SDS011;7060;43.770;4.008;2024-03-02T03:52:35;3.90;;;2.47;;
13973;SDS011;7060;43.770;4.008;2024-03-02T03:55:03;6.83;;;2.50;;
13973;SDS011;7060;43.770;4.008;2024-03-02T03:57:32;5.87;;;2.40;;
13973;SDS011;7060;43.770;4.008;2024-03-02T04:00:01;4.33;;;2.50;;
13973;SDS011;7060;43.770;4.008;2024-03-02T04:02:37;5.43;;;1.93;;
13973;SDS011;7060;43.770;4.008;2024-03-02T04:05:07;4.57;;;2.07;;
13973;SDS011;7060;43.770;4.008;2024-03-02T04:07:38;5.03;;;2.20;;
13973;SDS011;7060;43.770;4.008;2024-03-02T04:10:07;5.23;;;2.10;;
13973;SDS011;7060;43.770;4.008;2024-03-02T04:12:36;4.17;;;1.87;;
13973;SDS011;7060;43.770;4.008;2024-03-02T04:15:05;4.47;;;2.03;;
13973;SDS011;7060;43.770;4.008;2024-03-02T04:17:33;5.57;;;2.10;;
13973;SDS011;7060;43.770;4.008;2024-03-02T04:20:02;3.77;;;1.77;;
13973;SDS011;7060;43.770;4.008;2024-03-02T04:22:34;2.57;;;1.60;;
13973;SDS011;7060;43.770;4.008;2024-03-02T04:25:03;2.10;;;1.43;;
13973;SDS011;7060;43.770;4.008;2024-03-02T04:27:33;2.43;;;1.50;;
13973;SDS011;7060;43.770;4.008;2024-03-02T04:30:02;4.77;;;1.90;;
13973;SDS011;7060;43.770;4.008;2024-03-02T04:32:32;4.70;;;1.50;;
13973;SDS011;7060;43.770;4.008;2024-03-02T04:35:00;6.70;;;1.90;;
13973;SDS011;7060;43.770;4.008;2024-03-02T04:37:28;4.33;;;1.57;;
13973;SDS011;7060;43.770;4.008;2024-03-02T04:39:58;4.67;;;1.33;;
13973;SDS011;7060;43.770;4.008;2024-03-02T04:42:27;4.50;;;1.60;;
13973;SDS011;7060;43.770;4.008;2024-03-02T04:44:54;2.10;;;1.20;;
13973;SDS011;7060;43.770;4.008;2024-03-02T04:47:22;7.23;;;1.80;;
13973;SDS011;7060;43.770;4.008;2024-03-02T04:49:50;4.20;;;1.30;;
13973;SDS011;7060;43.770;4.008;2024-03-02T04:52:18;4.07;;;1.47;;
13973;SDS011;7060;43.770;4.008;2024-03-02T04:54:46;3.20;;;1.23;;
13973;SDS011;7060;43.770;4.008;2024-03-02T04:57:34;3.53;;;1.40;;
13973;SDS011;7060;43.770;4.008;2024-03-02T05:00:02;3.80;;;1.43;;
13973;SDS011;7060;43.770;4.008;2024-03-02T05:02:33;3.07;;;1.40;;
13973;SDS011;7060;43.770;4.008;2024-03-02T05:05:01;3.17;;;1.60;;
13973;SDS011;7060;43.770;4.008;2024-03-02T05:07:30;3.57;;;1.30;;
13973;SDS011;7060;43.770;4.008;2024-03-02T05:09:58;1.77;;;1.17;;
13973;SDS011;7060;43.770;4.008;2024-03-02T05:12:26;6.80;;;1.70;;
13973;SDS011;7060;43.770;4.008;2024-03-02T05:15:23;3.57;;;1.30;;
13973;SDS011;7060;43.770;4.008;2024-03-02T05:17:50;3.40;;;1.40;;
13973;SDS011;7060;43.770;4.008;2024-03-02T05:20:19;4.80;;;1.23;;
13973;SDS011;7060;43.770;4.008;2024-03-02T05:22:47;4.93;;;1.90;;
13973;SDS011;7060;43.770;4.008;2024-03-02T05:25:16;3.53;;;1.50;;
13973;SDS011;7060;43.770;4.008;2024-03-02T05:27:44;4.73;;;1.80;;
13973;SDS011;7060;43.770;4.008;2024-03-02T05:30:13;3.00;;;1.37;;
13973;SDS011;7060;43.770;4.008;2024-03-02T05:32:42;4.53;;;1.70;;
13973;SDS011;7060;43.770;4.008;2024-03-02T05:35:10;5.63;;;1.57;;
13973;SDS011;7060;43.770;4.008;2024-03-02T05:37:39;2.70;;;1.20;;
13973;SDS011;7060;43.770;4.008;2024-03-02T05:40:07;3.50;;;1.30;;
13973;SDS011;7060;43.770;4.008;2024-03-02T05:42:37;5.83;;;1.47;;
13973;SDS011;7060;43.770;4.008;2024-03-02T05:45:08;4.23;;;1.20;;
13973;SDS011;7060;43.770;4.008;2024-03-02T05:47:36;3.13;;;1.17;;
13973;SDS011;7060;43.770;4.008;2024-03-02T05:50:06;5.97;;;1.73;;
13973;SDS011;7060;43.770;4.008;2024-03-02T05:52:35;4.73;;;2.03;;
13973;SDS011;7060;43.770;4.008;2024-03-02T05:55:03;6.33;;;1.33;;
13973;SDS011;7060;43.770;4.008;2024-03-02T05:57:31;3.37;;;1.53;;
13973;SDS011;7060;43.770;4.008;2024-03-02T06:00:14;5.23;;;1.57;;
13973;SDS011;7060;43.770;4.008;2024-03-02T06:02:43;3.27;;;1.33;;
13973;SDS011;7060;43.770;4.008;2024-03-02T06:05:13;3.80;;;1.87;;
13973;SDS011;7060;43.770;4.008;2024-03-02T06:07:41;5.53;;;1.70;;
13973;SDS011;7060;43.770;4.008;2024-03-02T06:10:10;3.43;;;1.70;;
13973;SDS011;7060;43.770;4.008;2024-03-02T06:12:40;3.27;;;1.70;;
13973;SDS011;7060;43.770;4.008;2024-03-02T06:15:08;4.50;;;1.20;;
13973;SDS011;7060;43.770;4.008;2024-03-02T06:17:37;2.97;;;1.30;;
13973;SDS011;7060;43.770;4.008;2024-03-02T06:20:05;2.47;;;1.17;;
13973;SDS011;7060;43.770;4.008;2024-03-02T06:22:36;4.50;;;1.40;;
13973;SDS011;7060;43.770;4.008;2024-03-02T06:25:04;3.87;;;1.40;;
13973;SDS011;7060;43.770;4.008;2024-03-02T06:27:33;3.57;;;1.60;;
13973;SDS011;7060;43.770;4.008;2024-03-02T06:30:01;4.03;;;1.30;;
13973;SDS011;7060;43.770;4.008;2024-03-02T06:32:30;3.97;;;2.17;;
13973;SDS011;7060;43.770;4.008;2024-03-02T06:34:58;3.70;;;1.50;;
13973;SDS011;7060;43.770;4.008;2024-03-02T06:37:26;2.23;;;1.17;;
13973;SDS011;7060;43.770;4.008;2024-03-02T06:39:56;2.87;;;1.10;;
13973;SDS011;7060;43.770;4.008;2024-03-02T06:42:24;3.70;;;1.20;;
13973;SDS011;7060;43.770;4.008;2024-03-02T06:44:52;2.30;;;1.00;;
13973;SDS011;7060;43.770;4.008;2024-03-02T06:47:20;3.73;;;1.07;;
13973;SDS011;7060;43.770;4.008;2024-03-02T06:49:48;4.90;;;1.30;;
13973;SDS011;7060;43.770;4.008;2024-03-02T06:52:17;8.10;;;2.43;;
13973;SDS011;7060;43.770;4.008;2024-03-02T06:54:49;4.57;;;1.70;;
13973;SDS011;7060;43.770;4.008;2024-03-02T06:57:19;5.03;;;1.60;;
13973;SDS011;7060;43.770;4.008;2024-03-02T06:59:47;5.20;;;1.83;;
13973;SDS011;7060;43.770;4.008;2024-03-02T07:02:17;4.17;;;2.00;;
13973;SDS011;7060;43.770;4.008;2024-03-02T07:04:45;9.17;;;2.77;;
13973;SDS011;7060;43.770;4.008;2024-03-02T07:07:14;5.10;;;2.37;;
13973;SDS011;7060;43.770;4.008;2024-03-02T07:09:40;8.03;;;2.57;;
13973;SDS011;7060;43.770;4.008;2024-03-02T07:12:09;12.77;;;3.37;;
13973;SDS011;7060;43.770;4.008;2024-03-02T07:14:38;12.37;;;4.30;;
13973;SDS011;7060;43.770;4.008;2024-03-02T07:17:23;9.17;;;3.67;;
13973;SDS011;7060;43.770;4.008;2024-03-02T07:19:52;7.73;;;3.30;;
13973;SDS011;7060;43.770;4.008;2024-03-02T07:22:20;8.13;;;3.03;;
13973;SDS011;7060;43.770;4.008;2024-03-02T07:24:49;14.43;;;3.43;;
13973;SDS011;7060;43.770;4.008;2024-03-02T07:27:17;11.50;;;3.00;;
13973;SDS011;7060;43.770;4.008;2024-03-02T07:29:46;12.03;;;2.63;;
13973;SDS011;7060;43.770;4.008;2024-03-02T07:32:14;10.27;;;2.90;;
13973;SDS011;7060;43.770;4.008;2024-03-02T07:34:42;9.53;;;2.50;;
13973;SDS011;7060;43.770;4.008;2024-03-02T07:37:10;8.80;;;2.73;;
13973;SDS011;7060;43.770;4.008;2024-03-02T07:39:39;9.67;;;2.03;;
13973;SDS011;7060;43.770;4.008;2024-03-02T07:42:07;9.57;;;2.60;;
13973;SDS011;7060;43.770;4.008;2024-03-02T07:44:35;5.73;;;2.23;;
13973;SDS011;7060;43.770;4.008;2024-03-02T07:47:06;11.67;;;2.53;;
13973;SDS011;7060;43.770;4.008;2024-03-02T07:49:34;10.53;;;2.40;;
13973;SDS011;7060;43.770;4.008;2024-03-02T07:52:02;8.23;;;2.17;;
13973;SDS011;7060;43.770;4.008;2024-03-02T07:54:31;11.33;;;3.33;;
13973;SDS011;7060;43.770;4.008;2024-03-02T07:56:59;10.17;;;2.70;;
13973;SDS011;7060;43.770;4.008;2024-03-02T07:59:27;12.93;;;2.53;;
13973;SDS011;7060;43.770;4.008;2024-03-02T08:01:55;8.53;;;2.20;;
13973;SDS011;7060;43.770;4.008;2024-03-02T08:04:24;8.83;;;3.00;;
13973;SDS011;7060;43.770;4.008;2024-03-02T08:06:55;7.93;;;2.43;;
13973;SDS011;7060;43.770;4.008;2024-03-02T08:09:23;12.53;;;2.33;;
13973;SDS011;7060;43.770;4.008;2024-03-02T08:11:52;8.67;;;2.63;;
13973;SDS011;7060;43.770;4.008;2024-03-02T08:14:20;7.07;;;2.00;;
13973;SDS011;7060;43.770;4.008;2024-03-02T08:16:48;9.70;;;2.43;;
13973;SDS011;7060;43.770;4.008;2024-03-02T08:19:16;9.67;;;2.63;;
13973;SDS011;7060;43.770;4.008;2024-03-02T08:21:45;7.23;;;2.10;;
13973;SDS011;7060;43.770;4.008;2024-03-02T08:24:13;11.63;;;2.30;;
13973;SDS011;7060;43.770;4.008;2024-03-02T08:26:42;10.53;;;2.27;;
13973;SDS011;7060;43.770;4.008;2024-03-02T08:29:09;8.87;;;2.30;;
13973;SDS011;7060;43.770;4.008;2024-03-02T08:31:38;7.70;;;2.17;;
13973;SDS011;7060;43.770;4.008;2024-03-02T08:34:07;9.83;;;2.30;;
13973;SDS011;7060;43.770;4.008;2024-03-02T08:36:36;8.50;;;2.37;;
13973;SDS011;7060;43.770;4.008;2024-03-02T08:39:06;7.13;;;2.70;;
13973;SDS011;7060;43.770;4.008;2024-03-02T08:41:42;9.27;;;2.87;;
13973;SDS011;7060;43.770;4.008;2024-03-02T08:44:10;10.23;;;2.43;;
13973;SDS011;7060;43.770;4.008;2024-03-02T08:46:39;12.70;;;2.97;;
13973;SDS011;7060;43.770;4.008;2024-03-02T08:49:07;13.40;;;2.97;;
13973;SDS011;7060;43.770;4.008;2024-03-02T08:51:35;11.67;;;3.07;;
13973;SDS011;7060;43.770;4.008;2024-03-02T08:54:03;19.53;;;4.80;;
13973;SDS011;7060;43.770;4.008;2024-03-02T08:56:33;10.93;;;3.70;;
13973;SDS011;7060;43.770;4.008;2024-03-02T08:59:01;8.57;;;3.00;;
13973;SDS011;7060;43.770;4.008;2024-03-02T09:01:29;6.50;;;2.43;;
13973;SDS011;7060;43.770;4.008;2024-03-02T09:03:57;10.73;;;3.17;;
13973;SDS011;7060;43.770;4.008;2024-03-02T09:06:25;9.53;;;3.03;;
13973;SDS011;7060;43.770;4.008;2024-03-02T09:08:53;9.10;;;2.07;;
13973;SDS011;7060;43.770;4.008;2024-03-02T09:11:21;10.90;;;3.00;;
13973;SDS011;7060;43.770;4.008;2024-03-02T09:13:50;7.97;;;3.43;;
13973;SDS011;7060;43.770;4.008;2024-03-02T09:16:19;11.30;;;2.63;;
13973;SDS011;7060;43.770;4.008;2024-03-02T09:18:47;9.50;;;2.30;;
13973;SDS011;7060;43.770;4.008;2024-03-02T09:21:15;12.73;;;3.10;;
13973;SDS011;7060;43.770;4.008;2024-03-02T09:23:43;8.37;;;2.77;;
13973;SDS011;7060;43.770;4.008;2024-03-02T09:26:12;8.70;;;2.50;;
13973;SDS011;7060;43.770;4.008;2024-03-02T09:28:42;13.03;;;3.20;;
13973;SDS011;7060;43.770;4.008;2024-03-02T09:31:11;18.27;;;3.27;;
13973;SDS011;7060;43.770;4.008;2024-03-02T09:33:39;12.40;;;2.77;;
13973;SDS011;7060;43.770;4.008;2024-03-02T09:36:16;9.57;;;2.67;;
13973;SDS011;7060;43.770;4.008;2024-03-02T09:38:44;8.27;;;2.67;;
13973;SDS011;7060;43.770;4.008;2024-03-02T09:41:12;12.83;;;3.13;;
13973;SDS011;7060;43.770;4.008;2024-03-02T09:43:41;13.83;;;3.83;;
13973;SDS011;7060;43.770;4.008;2024-03-02T09:46:09;9.57;;;2.73;;
13973;SDS011;7060;43.770;4.008;2024-03-02T09:48:39;10.97;;;2.57;;
13973;SDS011;7060;43.770;4.008;2024-03-02T09:51:07;9.27;;;2.70;;
13973;SDS011;7060;43.770;4.008;2024-03-02T09:53:36;13.93;;;3.47;;
13973;SDS011;7060;43.770;4.008;2024-03-02T09:56:04;12.73;;;2.93;;
13973;SDS011;7060;43.770;4.008;2024-03-02T09:58:33;14.07;;;3.63;;
13973;SDS011;7060;43.770;4.008;2024-03-02T10:01:01;14.53;;;3.40;;
13973;SDS011;7060;43.770;4.008;2024-03-02T10:03:33;9.50;;;3.00;;
13973;SDS011;7060;43.770;4.008;2024-03-02T10:06:22;17.13;;;4.37;;
13973;SDS011;7060;43.770;4.008;2024-03-02T10:08:51;11.73;;;3.10;;
13973;SDS011;7060;43.770;4.008;2024-03-02T10:11:26;13.67;;;3.93;;
13973;SDS011;7060;43.770;4.008;2024-03-02T10:14:05;16.77;;;3.43;;
13973;SDS011;7060;43.770;4.008;2024-03-02T10:16:38;12.87;;;3.20;;
13973;SDS011;7060;43.770;4.008;2024-03-02T10:19:16;10.63;;;3.13;;
13973;SDS011;7060;43.770;4.008;2024-03-02T10:21:46;14.37;;;3.53;;
13973;SDS011;7060;43.770;4.008;2024-03-02T10:24:16;11.43;;;3.20;;
13973;SDS011;7060;43.770;4.008;2024-03-02T10:26:44;13.90;;;3.77;;
13973;SDS011;7060;43.770;4.008;2024-03-02T10:29:12;12.77;;;3.70;;
13973;SDS011;7060;43.770;4.008;2024-03-02T10:31:40;9.50;;;2.60;;
13973;SDS011;7060;43.770;4.008;2024-03-02T10:34:10;15.00;;;2.60;;
13973;SDS011;7060;43.770;4.008;2024-03-02T10:36:40;10.60;;;2.10;;
13973;SDS011;7060;43.770;4.008;2024-03-02T10:39:11;14.33;;;2.37;;
13973;SDS011;7060;43.770;4.008;2024-03-02T10:41:41;8.57;;;2.30;;
13973;SDS011;7060;43.770;4.008;2024-03-02T10:44:09;4.33;;;1.53;;
13973;SDS011;7060;43.770;4.008;2024-03-02T10:46:37;7.10;;;2.10;;
13973;SDS011;7060;43.770;4.008;2024-03-02T10:49:06;5.30;;;1.43;;
13973;SDS011;7060;43.770;4.008;2024-03-02T10:51:35;6.13;;;1.53;;
13973;SDS011;7060;43.770;4.008;2024-03-02T10:54:04;6.03;;;1.33;;
13973;SDS011;7060;43.770;4.008;2024-03-02T10:56:38;4.77;;;1.30;;
13973;SDS011;7060;43.770;4.008;2024-03-02T10:59:11;11.40;;;1.87;;
13973;SDS011;7060;43.770;4.008;2024-03-02T11:01:46;6.93;;;1.73;;
13973;SDS011;7060;43.770;4.008;2024-03-02T11:04:16;12.57;;;2.13;;
13973;SDS011;7060;43.770;4.008;2024-03-02T11:06:47;11.07;;;2.40;;
13973;SDS011;7060;43.770;4.008;2024-03-02T11:09:17;10.83;;;1.73;;
13973;SDS011;7060;43.770;4.008;2024-03-02T11:11:49;9.20;;;1.60;;
13973;SDS011;7060;43.770;4.008;2024-03-02T11:14:23;4.20;;;1.07;;
13973;SDS011;7060;43.770;4.008;2024-03-02T11:16:52;3.47;;;1.30;;
13973;SDS011;7060;43.770;4.008;2024-03-02T11:19:21;4.70;;;1.13;;
13973;SDS011;7060;43.770;4.008;2024-03-02T11:21:51;2.43;;;0.80;;
13973;SDS011;7060;43.770;4.008;2024-03-02T11:24:29;4.00;;;1.03;;
13973;SDS011;7060;43.770;4.008;2024-03-02T11:29:47;3.63;;;1.43;;
13973;SDS011;7060;43.770;4.008;2024-03-02T11:32:17;5.50;;;1.90;;
13973;SDS011;7060;43.770;4.008;2024-03-02T11:34:49;6.53;;;1.50;;
13973;SDS011;7060;43.770;4.008;2024-03-02T11:37:18;4.63;;;1.50;;
13973;SDS011;7060;43.770;4.008;2024-03-02T11:39:48;7.20;;;1.50;;
13973;SDS011;7060;43.770;4.008;2024-03-02T11:42:19;7.20;;;1.63;;
13973;SDS011;7060;43.770;4.008;2024-03-02T11:44:47;7.67;;;1.60;;
13973;SDS011;7060;43.770;4.008;2024-03-02T11:47:16;5.53;;;1.17;;
13973;SDS011;7060;43.770;4.008;2024-03-02T11:49:45;15.87;;;3.40;;
13973;SDS011;7060;43.770;4.008;2024-03-02T11:52:16;8.90;;;1.40;;
13973;SDS011;7060;43.770;4.008;2024-03-02T11:54:46;6.10;;;1.60;;
13973;SDS011;7060;43.770;4.008;2024-03-02T11:57:16;6.87;;;1.33;;
13973;SDS011;7060;43.770;4.008;2024-03-02T11:59:47;7.37;;;1.57;;
13973;SDS011;7060;43.770;4.008;2024-03-02T12:02:16;14.23;;;1.50;;
13973;SDS011;7060;43.770;4.008;2024-03-02T12:04:45;5.83;;;1.67;;
13973;SDS011;7060;43.770;4.008;2024-03-02T12:07:18;5.47;;;1.60;;
13973;SDS011;7060;43.770;4.008;2024-03-02T12:09:48;7.43;;;1.73;;
13973;SDS011;7060;43.770;4.008;2024-03-02T12:12:16;12.30;;;3.70;;
13973;SDS011;7060;43.770;4.008;2024-03-02T12:14:51;8.33;;;2.03;;
13973;SDS011;7060;43.770;4.008;2024-03-02T12:17:22;10.27;;;2.20;;
13973;SDS011;7060;43.770;4.008;2024-03-02T12:19:50;8.87;;;1.87;;
13973;SDS011;7060;43.770;4.008;2024-03-02T12:22:19;11.43;;;3.10;;
13973;SDS011;7060;43.770;4.008;2024-03-02T12:24:48;13.93;;;2.50;;
13973;SDS011;7060;43.770;4.008;2024-03-02T12:27:16;11.60;;;2.37;;
13973;SDS011;7060;43.770;4.008;2024-03-02T12:29:47;12.57;;;2.17;;
13973;SDS011;7060;43.770;4.008;2024-03-02T12:32:17;11.73;;;2.83;;
13973;SDS011;7060;43.770;4.008;2024-03-02T12:34:46;11.27;;;3.17;;
13973;SDS011;7060;43.770;4.008;2024-03-02T12:37:14;9.43;;;2.67;;
13973;SDS011;7060;43.770;4.008;2024-03-02T12:39:44;14.93;;;2.40;;
13973;SDS011;7060;43.770;4.008;2024-03-02T12:42:12;11.03;;;3.20;;
13973;SDS011;7060;43.770;4.008;2024-03-02T12:44:40;11.57;;;2.13;;
13973;SDS011;7060;43.770;4.008;2024-03-02T12:47:08;9.47;;;2.53;;
13973;SDS011;7060;43.770;4.008;2024-03-02T12:49:41;15.40;;;2.33;;
13973;SDS011;7060;43.770;4.008;2024-03-02T12:52:09;14.53;;;2.40;;
13973;SDS011;7060;43.770;4.008;2024-03-02T12:54:39;13.43;;;3.07;;
13973;SDS011;7060;43.770;4.008;2024-03-02T12:57:07;7.90;;;1.93;;
13973;SDS011;7060;43.770;4.008;2024-03-02T12:59:35;14.67;;;2.37;;
13973;SDS011;7060;43.770;4.008;2024-03-02T13:02:03;14.13;;;2.80;;
13973;SDS011;7060;43.770;4.008;2024-03-02T13:04:32;15.77;;;2.63;;
13973;SDS011;7060;43.770;4.008;2024-03-02T13:07:01;15.13;;;2.27;;
13973;SDS011;7060;43.770;4.008;2024-03-02T13:09:29;14.97;;;3.00;;
13973;SDS011;7060;43.770;4.008;2024-03-02T13:12:00;15.10;;;2.50;;
13973;SDS011;7060;43.770;4.008;2024-03-02T13:14:32;17.10;;;3.03;;
13973;SDS011;7060;43.770;4.008;2024-03-02T13:17:00;15.90;;;3.00;;
13973;SDS011;7060;43.770;4.008;2024-03-02T13:19:30;9.93;;;3.57;;
13973;SDS011;7060;43.770;4.008;2024-03-02T13:21:58;12.77;;;3.03;;
13973;SDS011;7060;43.770;4.008;2024-03-02T13:24:28;14.03;;;2.67;;
13973;SDS011;7060;43.770;4.008;2024-03-02T13:26:56;15.57;;;3.83;;
13973;SDS011;7060;43.770;4.008;2024-03-02T13:29:26;18.60;;;3.80;;
13973;SDS011;7060;43.770;4.008;2024-03-02T13:31:54;14.57;;;3.37;;
13973;SDS011;7060;43.770;4.008;2024-03-02T13:34:24;12.63;;;2.77;;
13973;SDS011;7060;43.770;4.008;2024-03-02T13:36:52;15.07;;;3.00;;
13973;SDS011;7060;43.770;4.008;2024-03-02T13:39:21;15.77;;;3.80;;
13973;SDS011;7060;43.770;4.008;2024-03-02T13:41:50;15.63;;;3.50;;
13973;SDS011;7060;43.770;4.008;2024-03-02T13:44:24;13.87;;;5.03;;
13973;SDS011;7060;43.770;4.008;2024-03-02T13:46:51;14.80;;;3.57;;
13973;SDS011;7060;43.770;4.008;2024-03-02T13:49:20;13.17;;;2.77;;
13973;SDS011;7060;43.770;4.008;2024-03-02T13:51:49;13.37;;;2.80;;
13973;SDS011;7060;43.770;4.008;2024-03-02T13:54:17;13.67;;;2.33;;
13973;SDS011;7060;43.770;4.008;2024-03-02T13:56:47;9.03;;;2.87;;
13973;SDS011;7060;43.770;4.008;2024-03-02T13:59:15;15.50;;;3.00;;
13973;SDS011;7060;43.770;4.008;2024-03-02T14:01:43;12.83;;;2.90;;
13973;SDS011;7060;43.770;4.008;2024-03-02T14:04:11;13.00;;;3.63;;
13973;SDS011;7060;43.770;4.008;2024-03-02T14:06:39;16.80;;;2.80;;
13973;SDS011;7060;43.770;4.008;2024-03-02T14:09:09;13.63;;;2.40;;
13973;SDS011;7060;43.770;4.008;2024-03-02T14:11:37;14.90;;;3.23;;
13973;SDS011;7060;43.770;4.008;2024-03-02T14:14:07;13.77;;;2.47;;
13973;SDS011;7060;43.770;4.008;2024-03-02T14:16:35;13.63;;;2.67;;
13973;SDS011;7060;43.770;4.008;2024-03-02T14:19:03;17.37;;;3.90;;
13973;SDS011;7060;43.770;4.008;2024-03-02T14:21:31;15.10;;;3.07;;
13973;SDS011;7060;43.770;4.008;2024-03-02T14:24:02;11.53;;;2.70;;
13973;SDS011;7060;43.770;4.008;2024-03-02T14:26:30;11.73;;;2.57;;
13973;SDS011;7060;43.770;4.008;2024-03-02T14:28:59;14.90;;;2.70;;
13973;SDS011;7060;43.770;4.008;2024-03-02T14:31:30;10.20;;;1.67;;
13973;SDS011;7060;43.770;4.008;2024-03-02T14:33:58;10.90;;;2.30;;
13973;SDS011;7060;43.770;4.008;2024-03-02T14:36:27;12.77;;;2.40;;
13973;SDS011;7060;43.770;4.008;2024-03-02T14:38:55;12.23;;;3.60;;
13973;SDS011;7060;43.770;4.008;2024-03-02T14:41:23;8.50;;;2.40;;
13973;SDS011;7060;43.770;4.008;2024-03-02T14:43:51;11.67;;;3.30;;
13973;SDS011;7060;43.770;4.008;2024-03-02T14:46:19;12.87;;;2.50;;
13973;SDS011;7060;43.770;4.008;2024-03-02T14:48:49;16.30;;;2.63;;
13973;SDS011;7060;43.770;4.008;2024-03-02T14:51:17;11.60;;;3.03;;
13973;SDS011;7060;43.770;4.008;2024-03-02T14:53:45;18.97;;;3.03;;
13973;SDS011;7060;43.770;4.008;2024-03-02T14:56:13;8.77;;;1.97;;
13973;SDS011;7060;43.770;4.008;2024-03-02T14:58:41;14.33;;;3.20;;
13973;SDS011;7060;43.770;4.008;2024-03-02T15:01:11;17.20;;;3.43;;
13973;SDS011;7060;43.770;4.008;2024-03-02T15:03:40;10.63;;;2.50;;
13973;SDS011;7060;43.770;4.008;2024-03-02T15:06:10;11.07;;;2.90;;
13973;SDS011;7060;43.770;4.008;2024-03-02T15:08:38;15.53;;;3.60;;
13973;SDS011;7060;43.770;4.008;2024-03-02T15:11:08;16.50;;;3.60;;
13973;SDS011;7060;43.770;4.008;2024-03-02T15:13:36;17.83;;;3.27;;